Warning: Javascript must be enabled to use all the features on this page!


Page Loading - Please Wait...

Click to hideNews Bulletins

Streamflow Measurements for the Nation


USGS 02292480 CALOOSAHATCHEE CANAL AT ORTONA LOCK NR LA BELLE


Glades County, Florida
Hydrologic Unit Code 03090205
Latitude  26°47'22", Longitude  81°18'11" NAD27
Output formats
HTML table with channel data
HTML table without channel data
Tab-separated data with channel data
Tab-separated data without channel data
Graph of data
Reselect output format
Meas.
Number
  Date       Time Time
Datum
Measurement
Used?
  Who Measuring
Agency
Stream
flow
(ft3/s)
Gage
Height
(ft)
GH
Change
(ft)
Meas.
Duration
(hr)
Meas.
Rated
  Control Flow
Adjust.
Code
 
1132016-10-12 11:03:03EDTYesCCT/LESUSGS531010.12 Fair NONE
1122016-02-11 12:41:57ESTYesCCT/SAHUSGS6140 FairClearNONE
1112014-06-19 11:51:44EDTYesCCT/TMKUSGS84211.08 Fair NONE
1102014-06-19 10:54:06EDTYesCCT/TMKUSGS42511.09 Fair NONE
1092014-06-19 09:30:21EDTYesCCT/TMKUSGS4722.76 Fair NONE
1082003-05-20 14:44EDTYesrs / ekUSGS264010.60 FairClearNONE
1072003-05-20 14:30EDTYesrs / ekUSGS271010.68 FairClearNONE
1062003-05-20 13:16EDTYesrs / ekUSGS212010.83 GoodClearNONE
1052003-05-20 12:15EDTYesrs / ekUSGS142010.87 GoodClearNONE
1042003-05-20 11:52EDTYesrs / ekUSGS142010.87 GoodClearNONE
1032003-05-20 10:53EDTYesrs / ekUSGS73510.98 GoodClearNONE
1022002-09-12 14:09EDTYesrs / ekUSGS617011.060.000.50Fair NONE
1012002-09-12 12:48EDTYesrs / ekUSGS643011.060.000.50Fair NONE
1001999-08-25 12:59EDTYes--USGS289011.06 Unspecified NONE
991999-08-25 12:55EDTYes--USGS292011.06 Unspecified NONE
981999-08-25 12:52EDTYes--USGS291011.05 Unspecified NONE
971999-08-25 12:45EDTYes--USGS288011.09 Unspecified NONE
961999-08-25 12:28EDTYes--USGS127011.40 Unspecified NONE
951999-08-25 11:59EDTYes--USGS105011.40 Unspecified NONE
941999-08-25 11:51EDTYes--USGS103011.11 Unspecified NONE
931999-08-25 11:46EDTYes--USGS108011.13 Unspecified NONE
921999-08-25 11:42EDTYes--USGS79211.16 Unspecified NONE
911999-08-25 10:55EDTYes--USGS416011.11 Unspecified NONE
901999-08-25 10:51EDTYes--USGS416011.10 Unspecified NONE
891999-08-25 10:44EDTYes--USGS393011.15 Unspecified NONE
881999-08-25 10:39EDTYes--USGS436011.15 Unspecified NONE
871999-08-25 10:02EDTYes--USGS332011.22 Unspecified NONE
861999-08-25 09:58EDTYes--USGS371011.22 Unspecified NONE
851999-08-25 09:53EDTYes--USGS371011.20 Unspecified NONE
841999-08-25 09:49EDTYes--USGS387011.17 Unspecified NONE
831999-08-25 09:44EDTYes--USGS349011.22 Unspecified NONE
821999-08-25 09:40EDTYes--USGS353011.22 Unspecified NONE
811999-08-24 10:37EDTYes--USGS413011.23 Unspecified NONE
801999-08-24 10:33EDTYes--USGS405011.23 Unspecified NONE
791999-08-24 10:24EDTYes--USGS410011.23 Unspecified NONE
781999-08-24 10:21EDTYes--USGS406011.23 Unspecified NONE
771999-01-08 13:54ESTYes--USGS45011.04 Unspecified NONE
761999-01-08 13:52ESTYes--USGS30411.04 Unspecified NONE
751999-01-08 13:45ESTYes--USGS56111.05 Unspecified NONE
741999-01-08 13:43ESTYes--USGS37811.06 Unspecified NONE
731998-03-03 17:38ESTYes--USGS917010.64 Unspecified NONE
721998-03-03 17:36ESTYes--USGS922010.64 Unspecified NONE
711998-03-03 17:27ESTNo
701998-03-03 17:20ESTYes--USGS920010.64 Unspecified NONE
591997-08-20 15:58EDTYes--USGS119011.35 Unspecified NONE
691997-08-20 15:57EDTYes--USGS121010.90 Unspecified NONE
681997-08-20 15:38EDTYes--USGS114011.38 Unspecified NONE
581997-08-20 15:38EDTYes--USGS128011.39 Unspecified NONE
671997-08-20 15:17EDTYes--USGS132011.36 Unspecified NONE
571997-08-20 15:17EDTYes--USGS131011.36 Unspecified NONE
661997-08-20 14:18EDTYes--USGS129011.40 Unspecified NONE
561997-08-20 14:18EDTYes--USGS110011.38 Unspecified NONE
551997-08-20 14:12EDTYes--USGS122011.36 Unspecified NONE
651997-08-20 14:10EDTYes--USGS123011.36 Unspecified NONE
641997-08-20 13:53EDTYes--USGS798 Unspecified NONE
541997-08-20 13:53EDTYes--USGS110011.36 Unspecified NONE
531997-08-20 13:48EDTYes--USGS88411.38 Unspecified NONE
521997-08-20 13:40EDTYes--USGS88811.37 Unspecified NONE
631997-08-20 13:39EDTYes--USGS85411.39 Unspecified NONE
621997-08-20 13:20EDTYes--USGS84311.40 Unspecified NONE
611997-08-20 12:07EDTYes--USGS24411.44 Unspecified NONE
601997-08-20 11:26EDTYes--USGS21311.37 Unspecified NONE
441995-10-20 08:57EDTYes__USGS717011.03 Fair NONE
511995-10-20 08:12EDTYes--USGS716011.01 Unspecified NONE
501995-10-20 08:10EDTYes--USGS699011.01 Unspecified NONE
491995-10-20 08:08EDTYes--USGS720011.02 Unspecified NONE
481995-10-20 08:06EDTYes--USGS707011.04 Unspecified NONE
471995-10-20 08:04EDTYes_USGS727011.08 Fair NONE
461995-10-20 08:02EDTYes__USGS695011.04 Fair NONE
451995-10-20 08:00EDTYes__USGS749011.04 Fair NONE
431995-08-31 11:45EDTYes__USGS727011.21 Fair NONE
421995-08-31 11:38EDTYes__USGS778011.23 Fair NONE
411995-08-31 11:31EDTYes__USGS757011.20 Fair NONE
401995-08-31 11:23EDTYes__USGS763011.14 Fair NONE
391995-06-09 11:52EDTYes__USGS39211.11 Fair NONE
381995-06-09 11:44EDTYes__USGS36811.10 Poor NONE
371995-06-09 11:38EDTYes__USGS41611.14 Fair NONE
351995-06-09 11:19EDTYes__USGS87311.12 Fair NONE
341995-06-09 10:57EDTYes__USGS35611.23 Fair NONE
331995-06-09 10:47EDTYes__USGS33311.16 Fair NONE
191995-06-09 10:40EDTYes__USGS374010.76 Poor NONE
321995-06-09 10:35EDTYes__USGS34111.22 Fair NONE
311995-06-09 10:21EDTYes__USGS62811.17 Fair NONE
301995-06-09 10:11EDTYes__USGS68111.16 Fair NONE
291995-06-09 09:59EDTYes__USGS57711.13 Fair NONE
281995-06-09 09:45EDTYes__USGS72211.11 Fair NONE
271995-06-09 09:34EDTYes__USGS74511.15 Fair NONE
261995-06-09 09:24EDTYes__USGS75211.12 Fair NONE
361995-06-09 -- ----Yes__USGS84011.09 Fair NONE
251995-06-08 11:38EDTYes__USGS566010.74 Fair NONE
241995-06-08 11:30EDTYes__USGS599010.75 Fair NONE
231995-06-08 11:22EDTYes__USGS539010.75 Fair NONE
221995-06-08 11:12EDTYes__USGS483010.79 Unspecified NONE
211995-06-08 11:05EDTYes__USGS468010.74 Fair NONE
201995-06-08 10:51EDTYes__USGS483010.74 Fair NONE
181995-06-08 10:30EDTYes__USGS399010.90 Fair NONE
171995-06-08 10:22EDTYes__USGS394010.80 Poor NONE
161995-06-08 10:13EDTYes__USGS268011.05 Fair NONE
151995-06-08 10:04EDTYes__USGS272011.06 Fair NONE
141995-06-08 09:58EDTYes__USGS275010.96 Fair NONE
131995-06-08 09:48EDTYes__USGS144011.25 Fair NONE
121995-06-08 09:43EDTYes__USGS117011.17 Fair NONE
111995-06-08 09:40EDTYes__USGS136011.17 Fair NONE
91983-02-23 -- ----YesDMP/DCHUSGS804011.85 Poor NONE
101983-02-23 -- ----YesDCH/DMPUSGS833011.80 Poor NONE
81974-08-06 -- ----Yes--USGS690011.23 Unspecified NONE
71974-08-06 -- ----Yes--USGS853010.91 Unspecified NONE
61974-08-01 -- ----Yes--USGS916010.94 Unspecified NONE
51974-07-10 -- ----Yes--USGS145010.82 Unspecified NONE
41949-10-11 -- ----YesRCHUSGS6.52 Fair NONE
31949-09-08 -- ----YesREJUSGS5.48 Fair NONE
21949-02-02 -- ----YesRLT/RABUSGS2.85 Fair NONE
11948-12-14 -- ----YesRLTUSGS4.00 Fair NONE